sensor_id;sensor_type;location;lat;lon;timestamp;temperature;humidity
3504;DHT22;1766;53.490;10.174;2023-04-15T00:01:51;15.40;42.90
3504;DHT22;1766;53.490;10.174;2023-04-15T00:03:54;15.30;42.90
3504;DHT22;1766;53.490;10.174;2023-04-15T00:05:57;15.30;43.00
3504;DHT22;1766;53.490;10.174;2023-04-15T00:07:59;15.30;43.10
3504;DHT22;1766;53.490;10.174;2023-04-15T00:10:01;15.30;43.20
3504;DHT22;1766;53.490;10.174;2023-04-15T00:12:05;15.30;43.20
3504;DHT22;1766;53.490;10.174;2023-04-15T00:14:07;15.20;43.20
3504;DHT22;1766;53.490;10.174;2023-04-15T00:16:09;15.20;43.20
3504;DHT22;1766;53.490;10.174;2023-04-15T00:18:11;15.30;43.40
3504;DHT22;1766;53.490;10.174;2023-04-15T00:20:13;15.30;43.30
3504;DHT22;1766;53.490;10.174;2023-04-15T00:22:15;15.30;43.40
3504;DHT22;1766;53.490;10.174;2023-04-15T00:24:17;15.30;43.40
3504;DHT22;1766;53.490;10.174;2023-04-15T00:26:19;15.30;43.50
3504;DHT22;1766;53.490;10.174;2023-04-15T00:28:23;15.20;43.50
3504;DHT22;1766;53.490;10.174;2023-04-15T00:30:24;15.20;43.50
3504;DHT22;1766;53.490;10.174;2023-04-15T00:32:26;15.20;43.70
3504;DHT22;1766;53.490;10.174;2023-04-15T00:34:28;15.20;43.80
3504;DHT22;1766;53.490;10.174;2023-04-15T00:36:30;15.10;43.80
3504;DHT22;1766;53.490;10.174;2023-04-15T00:38:33;15.10;43.80
3504;DHT22;1766;53.490;10.174;2023-04-15T00:40:37;15.10;44.00
3504;DHT22;1766;53.490;10.174;2023-04-15T00:42:38;15.10;44.10
3504;DHT22;1766;53.490;10.174;2023-04-15T00:44:42;15.10;44.50
3504;DHT22;1766;53.490;10.174;2023-04-15T00:46:44;15.10;44.00
3504;DHT22;1766;53.490;10.174;2023-04-15T00:48:47;15.10;44.20
3504;DHT22;1766;53.490;10.174;2023-04-15T00:50:49;15.10;44.20
3504;DHT22;1766;53.490;10.174;2023-04-15T00:52:50;15.10;44.30
3504;DHT22;1766;53.490;10.174;2023-04-15T00:54:52;15.10;44.40
3504;DHT22;1766;53.490;10.174;2023-04-15T00:56:54;15.10;44.40
3504;DHT22;1766;53.490;10.174;2023-04-15T00:58:56;15.00;44.40
3504;DHT22;1766;53.490;10.174;2023-04-15T01:01:00;15.10;44.60
3504;DHT22;1766;53.490;10.174;2023-04-15T01:03:02;15.10;44.60
3504;DHT22;1766;53.490;10.174;2023-04-15T01:05:04;15.10;44.60
3504;DHT22;1766;53.490;10.174;2023-04-15T01:07:07;15.10;44.70
3504;DHT22;1766;53.490;10.174;2023-04-15T01:09:08;15.10;44.70
3504;DHT22;1766;53.490;10.174;2023-04-15T01:11:12;15.10;44.70
3504;DHT22;1766;53.490;10.174;2023-04-15T01:13:14;15.10;44.90
3504;DHT22;1766;53.490;10.174;2023-04-15T01:15:16;15.10;44.90
3504;DHT22;1766;53.490;10.174;2023-04-15T01:17:19;15.10;45.00
3504;DHT22;1766;53.490;10.174;2023-04-15T01:19:21;15.10;45.00
3504;DHT22;1766;53.490;10.174;2023-04-15T01:21:23;15.00;45.10
3504;DHT22;1766;53.490;10.174;2023-04-15T01:23:26;15.00;45.10
3504;DHT22;1766;53.490;10.174;2023-04-15T01:25:32;15.00;45.10
3504;DHT22;1766;53.490;10.174;2023-04-15T01:27:35;15.00;45.30
3504;DHT22;1766;53.490;10.174;2023-04-15T01:29:40;15.00;45.30
3504;DHT22;1766;53.490;10.174;2023-04-15T01:31:48;14.90;45.30
3504;DHT22;1766;53.490;10.174;2023-04-15T01:33:51;15.00;45.50
3504;DHT22;1766;53.490;10.174;2023-04-15T01:35:53;15.00;45.50
3504;DHT22;1766;53.490;10.174;2023-04-15T01:38:00;15.00;45.60
3504;DHT22;1766;53.490;10.174;2023-04-15T01:40:05;15.00;45.70
3504;DHT22;1766;53.490;10.174;2023-04-15T01:42:09;15.00;45.80
3504;DHT22;1766;53.490;10.174;2023-04-15T01:44:11;15.00;45.60
3504;DHT22;1766;53.490;10.174;2023-04-15T01:46:13;15.00;45.70
3504;DHT22;1766;53.490;10.174;2023-04-15T01:48:15;14.90;45.60
3504;DHT22;1766;53.490;10.174;2023-04-15T01:50:17;15.00;45.80
3504;DHT22;1766;53.490;10.174;2023-04-15T01:52:19;15.10;45.90
3504;DHT22;1766;53.490;10.174;2023-04-15T01:54:21;15.00;45.70
3504;DHT22;1766;53.490;10.174;2023-04-15T01:56:23;15.10;45.90
3504;DHT22;1766;53.490;10.174;2023-04-15T01:58:26;15.10;45.90
3504;DHT22;1766;53.490;10.174;2023-04-15T02:00:28;15.10;46.00
3504;DHT22;1766;53.490;10.174;2023-04-15T02:02:32;15.10;46.00
3504;DHT22;1766;53.490;10.174;2023-04-15T02:04:33;15.10;46.00
3504;DHT22;1766;53.490;10.174;2023-04-15T02:06:35;15.10;46.10
3504;DHT22;1766;53.490;10.174;2023-04-15T02:08:37;15.10;46.10
3504;DHT22;1766;53.490;10.174;2023-04-15T02:10:39;15.10;46.20
3504;DHT22;1766;53.490;10.174;2023-04-15T02:12:40;15.10;46.20
3504;DHT22;1766;53.490;10.174;2023-04-15T02:14:44;15.10;46.30
3504;DHT22;1766;53.490;10.174;2023-04-15T02:16:45;15.10;46.30
3504;DHT22;1766;53.490;10.174;2023-04-15T02:18:47;15.10;46.30
3504;DHT22;1766;53.490;10.174;2023-04-15T02:20:51;15.10;46.20
3504;DHT22;1766;53.490;10.174;2023-04-15T02:22:53;15.20;46.40
3504;DHT22;1766;53.490;10.174;2023-04-15T02:24:56;15.20;46.40
3504;DHT22;1766;53.490;10.174;2023-04-15T02:26:58;15.20;46.50
3504;DHT22;1766;53.490;10.174;2023-04-15T02:29:00;15.20;46.50
3504;DHT22;1766;53.490;10.174;2023-04-15T02:31:06;15.20;46.50
3504;DHT22;1766;53.490;10.174;2023-04-15T02:33:09;15.20;46.60
3504;DHT22;1766;53.490;10.174;2023-04-15T02:35:10;15.20;46.60
3504;DHT22;1766;53.490;10.174;2023-04-15T02:37:13;15.20;46.70
3504;DHT22;1766;53.490;10.174;2023-04-15T02:39:15;15.20;46.80
3504;DHT22;1766;53.490;10.174;2023-04-15T02:41:18;15.20;46.80
3504;DHT22;1766;53.490;10.174;2023-04-15T02:43:19;15.20;46.90
3504;DHT22;1766;53.490;10.174;2023-04-15T02:45:21;15.20;46.90
3504;DHT22;1766;53.490;10.174;2023-04-15T02:47:27;15.20;46.90
3504;DHT22;1766;53.490;10.174;2023-04-15T02:49:28;15.20;47.00
3504;DHT22;1766;53.490;10.174;2023-04-15T02:51:33;15.20;46.80
3504;DHT22;1766;53.490;10.174;2023-04-15T02:53:35;15.30;47.10
3504;DHT22;1766;53.490;10.174;2023-04-15T02:55:37;15.20;47.00
3504;DHT22;1766;53.490;10.174;2023-04-15T02:57:39;15.30;47.10
3504;DHT22;1766;53.490;10.174;2023-04-15T02:59:41;15.30;47.10
3504;DHT22;1766;53.490;10.174;2023-04-15T03:01:42;15.30;47.10
3504;DHT22;1766;53.490;10.174;2023-04-15T03:03:45;15.20;47.00
3504;DHT22;1766;53.490;10.174;2023-04-15T03:05:47;15.20;47.20
3504;DHT22;1766;53.490;10.174;2023-04-15T03:07:49;15.20;47.10
3504;DHT22;1766;53.490;10.174;2023-04-15T03:09:51;15.30;47.30
3504;DHT22;1766;53.490;10.174;2023-04-15T03:11:53;15.30;47.30
3504;DHT22;1766;53.490;10.174;2023-04-15T03:13:56;15.30;47.40
3504;DHT22;1766;53.490;10.174;2023-04-15T03:15:58;15.30;47.40
3504;DHT22;1766;53.490;10.174;2023-04-15T03:17:59;15.30;47.40
3504;DHT22;1766;53.490;10.174;2023-04-15T03:20:04;15.30;47.40
3504;DHT22;1766;53.490;10.174;2023-04-15T03:22:06;15.30;47.50
3504;DHT22;1766;53.490;10.174;2023-04-15T03:24:08;15.30;47.50
3504;DHT22;1766;53.490;10.174;2023-04-15T03:26:23;15.40;47.60
3504;DHT22;1766;53.490;10.174;2023-04-15T03:28:25;15.30;47.60
3504;DHT22;1766;53.490;10.174;2023-04-15T03:30:28;15.30;47.60
3504;DHT22;1766;53.490;10.174;2023-04-15T03:32:29;15.30;47.80
3504;DHT22;1766;53.490;10.174;2023-04-15T03:34:31;15.20;47.80
3504;DHT22;1766;53.490;10.174;2023-04-15T03:36:34;15.20;48.00
3504;DHT22;1766;53.490;10.174;2023-04-15T03:38:36;15.20;48.00
3504;DHT22;1766;53.490;10.174;2023-04-15T03:40:39;15.10;47.90
3504;DHT22;1766;53.490;10.174;2023-04-15T03:42:41;15.20;48.20
3504;DHT22;1766;53.490;10.174;2023-04-15T03:44:42;15.20;48.10
3504;DHT22;1766;53.490;10.174;2023-04-15T03:46:44;15.10;48.10
3504;DHT22;1766;53.490;10.174;2023-04-15T03:48:46;15.10;47.90
3504;DHT22;1766;53.490;10.174;2023-04-15T03:50:48;15.10;48.30
3504;DHT22;1766;53.490;10.174;2023-04-15T03:52:51;15.10;48.30
3504;DHT22;1766;53.490;10.174;2023-04-15T03:54:53;15.10;48.30
3504;DHT22;1766;53.490;10.174;2023-04-15T03:57:13;15.10;48.40
3504;DHT22;1766;53.490;10.174;2023-04-15T03:59:15;15.20;48.40
3504;DHT22;1766;53.490;10.174;2023-04-15T04:01:17;15.20;48.50
3504;DHT22;1766;53.490;10.174;2023-04-15T04:03:19;15.10;48.40
3504;DHT22;1766;53.490;10.174;2023-04-15T04:05:20;15.10;48.50
3504;DHT22;1766;53.490;10.174;2023-04-15T04:07:23;15.10;48.60
3504;DHT22;1766;53.490;10.174;2023-04-15T04:09:26;15.10;49.20
3504;DHT22;1766;53.490;10.174;2023-04-15T04:11:28;15.10;48.70
3504;DHT22;1766;53.490;10.174;2023-04-15T04:13:30;15.00;48.70
3504;DHT22;1766;53.490;10.174;2023-04-15T04:15:31;15.00;48.70
3504;DHT22;1766;53.490;10.174;2023-04-15T04:17:33;15.10;48.80
3504;DHT22;1766;53.490;10.174;2023-04-15T04:19:35;15.10;48.70
3504;DHT22;1766;53.490;10.174;2023-04-15T04:21:37;15.10;48.70
3504;DHT22;1766;53.490;10.174;2023-04-15T04:23:39;15.10;49.40
3504;DHT22;1766;53.490;10.174;2023-04-15T04:25:42;15.10;48.90
3504;DHT22;1766;53.490;10.174;2023-04-15T04:27:44;15.10;48.90
3504;DHT22;1766;53.490;10.174;2023-04-15T04:29:45;15.10;48.90
3504;DHT22;1766;53.490;10.174;2023-04-15T04:31:49;15.10;49.00
3504;DHT22;1766;53.490;10.174;2023-04-15T04:33:51;15.00;49.00
3504;DHT22;1766;53.490;10.174;2023-04-15T04:35:52;15.10;49.20
3504;DHT22;1766;53.490;10.174;2023-04-15T04:37:54;15.10;49.20
3504;DHT22;1766;53.490;10.174;2023-04-15T04:39:56;15.10;49.30
3504;DHT22;1766;53.490;10.174;2023-04-15T04:41:59;15.10;49.30
3504;DHT22;1766;53.490;10.174;2023-04-15T04:44:01;15.10;49.40
3504;DHT22;1766;53.490;10.174;2023-04-15T04:46:03;15.10;49.40
3504;DHT22;1766;53.490;10.174;2023-04-15T04:48:05;15.10;49.30
3504;DHT22;1766;53.490;10.174;2023-04-15T04:50:08;15.10;49.30
3504;DHT22;1766;53.490;10.174;2023-04-15T04:52:11;15.20;49.40
3504;DHT22;1766;53.490;10.174;2023-04-15T04:54:13;15.10;49.30
3504;DHT22;1766;53.490;10.174;2023-04-15T04:56:15;15.20;49.40
3504;DHT22;1766;53.490;10.174;2023-04-15T04:58:18;15.20;49.40
3504;DHT22;1766;53.490;10.174;2023-04-15T05:00:20;15.20;49.40
3504;DHT22;1766;53.490;10.174;2023-04-15T05:02:22;15.30;49.50
3504;DHT22;1766;53.490;10.174;2023-04-15T05:04:26;15.20;49.40
3504;DHT22;1766;53.490;10.174;2023-04-15T05:06:28;15.30;49.50
3504;DHT22;1766;53.490;10.174;2023-04-15T05:08:30;15.20;49.40
3504;DHT22;1766;53.490;10.174;2023-04-15T05:10:32;15.30;49.60
3504;DHT22;1766;53.490;10.174;2023-04-15T05:12:34;15.30;49.60
3504;DHT22;1766;53.490;10.174;2023-04-15T05:14:39;15.30;49.70
3504;DHT22;1766;53.490;10.174;2023-04-15T05:16:41;15.30;49.80
3504;DHT22;1766;53.490;10.174;2023-04-15T05:18:42;15.30;49.80
3504;DHT22;1766;53.490;10.174;2023-04-15T05:20:44;15.30;49.90
3504;DHT22;1766;53.490;10.174;2023-04-15T05:22:46;15.30;49.90
3504;DHT22;1766;53.490;10.174;2023-04-15T05:24:48;15.30;50.00
3504;DHT22;1766;53.490;10.174;2023-04-15T05:26:50;15.40;50.10
3504;DHT22;1766;53.490;10.174;2023-04-15T05:28:52;15.40;50.10
3504;DHT22;1766;53.490;10.174;2023-04-15T05:30:55;15.40;50.00
3504;DHT22;1766;53.490;10.174;2023-04-15T05:32:57;15.40;50.00
3504;DHT22;1766;53.490;10.174;2023-04-15T05:34:59;15.50;50.70
3504;DHT22;1766;53.490;10.174;2023-04-15T05:37:01;15.50;50.10
3504;DHT22;1766;53.490;10.174;2023-04-15T05:39:03;15.50;50.10
3504;DHT22;1766;53.490;10.174;2023-04-15T05:41:04;15.50;50.10
3504;DHT22;1766;53.490;10.174;2023-04-15T05:43:06;15.60;50.10
3504;DHT22;1766;53.490;10.174;2023-04-15T05:45:08;15.60;50.10
3504;DHT22;1766;53.490;10.174;2023-04-15T05:47:12;15.60;50.10
3504;DHT22;1766;53.490;10.174;2023-04-15T05:49:14;15.60;50.60
3504;DHT22;1766;53.490;10.174;2023-04-15T05:51:15;15.60;50.10
3504;DHT22;1766;53.490;10.174;2023-04-15T05:53:17;15.50;50.10
3504;DHT22;1766;53.490;10.174;2023-04-15T05:55:19;15.60;50.10
3504;DHT22;1766;53.490;10.174;2023-04-15T05:57:41;15.60;50.10
3504;DHT22;1766;53.490;10.174;2023-04-15T05:59:43;15.70;50.20
3504;DHT22;1766;53.490;10.174;2023-04-15T06:01:45;15.60;50.20
3504;DHT22;1766;53.490;10.174;2023-04-15T06:03:48;15.60;50.10
3504;DHT22;1766;53.490;10.174;2023-04-15T06:05:50;15.60;50.20
3504;DHT22;1766;53.490;10.174;2023-04-15T06:08:00;15.70;50.30
3504;DHT22;1766;53.490;10.174;2023-04-15T06:10:10;15.70;50.50
3504;DHT22;1766;53.490;10.174;2023-04-15T06:12:26;15.70;50.40
3504;DHT22;1766;53.490;10.174;2023-04-15T06:14:36;15.70;50.30
3504;DHT22;1766;53.490;10.174;2023-04-15T06:16:38;15.80;50.30
3504;DHT22;1766;53.490;10.174;2023-04-15T06:18:39;15.80;50.30
3504;DHT22;1766;53.490;10.174;2023-04-15T06:20:42;15.70;50.30
3504;DHT22;1766;53.490;10.174;2023-04-15T06:22:44;15.70;50.40
3504;DHT22;1766;53.490;10.174;2023-04-15T06:24:46;15.70;50.40
3504;DHT22;1766;53.490;10.174;2023-04-15T06:26:56;15.80;50.50
3504;DHT22;1766;53.490;10.174;2023-04-15T06:28:58;15.70;50.40
3504;DHT22;1766;53.490;10.174;2023-04-15T06:31:00;15.80;50.40
3504;DHT22;1766;53.490;10.174;2023-04-15T06:33:01;15.80;50.40
3504;DHT22;1766;53.490;10.174;2023-04-15T06:35:05;15.80;50.50
3504;DHT22;1766;53.490;10.174;2023-04-15T06:37:08;15.80;50.50
3504;DHT22;1766;53.490;10.174;2023-04-15T06:39:15;15.80;50.60
3504;DHT22;1766;53.490;10.174;2023-04-15T06:41:17;15.90;50.60
3504;DHT22;1766;53.490;10.174;2023-04-15T06:43:18;15.90;50.60
3504;DHT22;1766;53.490;10.174;2023-04-15T06:45:20;15.90;50.50
3504;DHT22;1766;53.490;10.174;2023-04-15T06:47:22;15.90;50.60
3504;DHT22;1766;53.490;10.174;2023-04-15T06:49:24;15.90;50.70
3504;DHT22;1766;53.490;10.174;2023-04-15T06:51:26;15.90;50.70
3504;DHT22;1766;53.490;10.174;2023-04-15T06:53:29;16.00;50.70
3504;DHT22;1766;53.490;10.174;2023-04-15T06:55:31;16.00;50.70
3504;DHT22;1766;53.490;10.174;2023-04-15T06:57:33;16.00;50.70
3504;DHT22;1766;53.490;10.174;2023-04-15T06:59:35;16.00;50.80
3504;DHT22;1766;53.490;10.174;2023-04-15T07:01:36;16.00;50.80
3504;DHT22;1766;53.490;10.174;2023-04-15T07:03:38;16.00;50.70
3504;DHT22;1766;53.490;10.174;2023-04-15T07:05:41;16.00;50.70
3504;DHT22;1766;53.490;10.174;2023-04-15T07:07:42;16.00;50.60
3504;DHT22;1766;53.490;10.174;2023-04-15T07:09:46;16.00;50.60
3504;DHT22;1766;53.490;10.174;2023-04-15T07:11:47;16.00;50.70
3504;DHT22;1766;53.490;10.174;2023-04-15T07:13:50;16.00;50.70
3504;DHT22;1766;53.490;10.174;2023-04-15T07:15:52;16.00;50.70
3504;DHT22;1766;53.490;10.174;2023-04-15T07:17:54;16.00;50.70
3504;DHT22;1766;53.490;10.174;2023-04-15T07:19:56;16.10;50.80
3504;DHT22;1766;53.490;10.174;2023-04-15T07:21:58;16.10;50.70
3504;DHT22;1766;53.490;10.174;2023-04-15T07:24:00;16.20;50.60
3504;DHT22;1766;53.490;10.174;2023-04-15T07:26:03;16.20;50.60
3504;DHT22;1766;53.490;10.174;2023-04-15T07:28:05;16.00;50.40
3504;DHT22;1766;53.490;10.174;2023-04-15T07:30:07;16.20;50.60
3504;DHT22;1766;53.490;10.174;2023-04-15T07:32:10;16.20;50.70
3504;DHT22;1766;53.490;10.174;2023-04-15T07:34:11;16.20;50.60
3504;DHT22;1766;53.490;10.174;2023-04-15T07:36:13;16.20;50.50
3504;DHT22;1766;53.490;10.174;2023-04-15T07:38:15;16.20;50.50
3504;DHT22;1766;53.490;10.174;2023-04-15T07:40:17;16.20;50.50
3504;DHT22;1766;53.490;10.174;2023-04-15T07:42:20;16.20;50.50
3504;DHT22;1766;53.490;10.174;2023-04-15T07:44:22;16.20;50.40
3504;DHT22;1766;53.490;10.174;2023-04-15T07:46:25;16.30;50.60
3504;DHT22;1766;53.490;10.174;2023-04-15T07:48:27;16.10;50.40
3504;DHT22;1766;53.490;10.174;2023-04-15T07:50:29;16.20;50.50
3504;DHT22;1766;53.490;10.174;2023-04-15T07:52:31;16.20;50.50
3504;DHT22;1766;53.490;10.174;2023-04-15T07:54:38;16.20;50.60
3504;DHT22;1766;53.490;10.174;2023-04-15T07:56:40;16.30;50.60
3504;DHT22;1766;53.490;10.174;2023-04-15T07:58:43;16.30;50.60
3504;DHT22;1766;53.490;10.174;2023-04-15T08:00:45;16.30;50.70
3504;DHT22;1766;53.490;10.174;2023-04-15T08:02:47;16.40;50.80
3504;DHT22;1766;53.490;10.174;2023-04-15T08:04:49;16.30;50.70
3504;DHT22;1766;53.490;10.174;2023-04-15T08:06:50;16.50;50.90
3504;DHT22;1766;53.490;10.174;2023-04-15T08:08:52;16.50;50.80
3504;DHT22;1766;53.490;10.174;2023-04-15T08:10:55;16.50;50.80
3504;DHT22;1766;53.490;10.174;2023-04-15T08:12:56;16.60;50.90
3504;DHT22;1766;53.490;10.174;2023-04-15T08:15:00;16.60;50.90
3504;DHT22;1766;53.490;10.174;2023-04-15T08:17:02;16.70;50.90
3504;DHT22;1766;53.490;10.174;2023-04-15T08:19:05;16.70;50.80
3504;DHT22;1766;53.490;10.174;2023-04-15T08:21:07;16.70;50.70
3504;DHT22;1766;53.490;10.174;2023-04-15T08:23:09;16.70;50.80
3504;DHT22;1766;53.490;10.174;2023-04-15T08:25:11;16.80;50.90
3504;DHT22;1766;53.490;10.174;2023-04-15T08:27:18;16.80;50.70
3504;DHT22;1766;53.490;10.174;2023-04-15T08:29:20;16.80;50.70
3504;DHT22;1766;53.490;10.174;2023-04-15T08:31:25;16.80;50.80
3504;DHT22;1766;53.490;10.174;2023-04-15T08:33:28;16.90;51.00
3504;DHT22;1766;53.490;10.174;2023-04-15T08:35:30;16.90;50.90
3504;DHT22;1766;53.490;10.174;2023-04-15T08:37:32;17.00;51.00
3504;DHT22;1766;53.490;10.174;2023-04-15T08:39:33;17.10;51.00
3504;DHT22;1766;53.490;10.174;2023-04-15T08:41:39;17.10;50.90
3504;DHT22;1766;53.490;10.174;2023-04-15T08:43:48;17.10;50.80
3504;DHT22;1766;53.490;10.174;2023-04-15T08:45:54;17.10;50.80
3504;DHT22;1766;53.490;10.174;2023-04-15T08:48:02;17.20;50.80
3504;DHT22;1766;53.490;10.174;2023-04-15T08:50:08;17.20;50.80
3504;DHT22;1766;53.490;10.174;2023-04-15T08:52:11;17.20;50.80
3504;DHT22;1766;53.490;10.174;2023-04-15T08:54:13;17.20;50.60
3504;DHT22;1766;53.490;10.174;2023-04-15T08:56:15;17.20;50.60
3504;DHT22;1766;53.490;10.174;2023-04-15T08:58:18;17.20;50.70
3504;DHT22;1766;53.490;10.174;2023-04-15T09:00:20;17.30;50.80
3504;DHT22;1766;53.490;10.174;2023-04-15T09:02:24;17.30;50.90
3504;DHT22;1766;53.490;10.174;2023-04-15T09:04:28;17.40;50.80
3504;DHT22;1766;53.490;10.174;2023-04-15T09:06:31;17.40;50.90
3504;DHT22;1766;53.490;10.174;2023-04-15T09:08:33;17.60;51.00
3504;DHT22;1766;53.490;10.174;2023-04-15T09:10:35;17.60;51.00
3504;DHT22;1766;53.490;10.174;2023-04-15T09:12:37;17.70;51.00
3504;DHT22;1766;53.490;10.174;2023-04-15T09:14:39;17.80;50.90
3504;DHT22;1766;53.490;10.174;2023-04-15T09:16:55;17.90;51.00
3504;DHT22;1766;53.490;10.174;2023-04-15T09:18:57;17.90;51.10
3504;DHT22;1766;53.490;10.174;2023-04-15T09:21:09;18.00;50.60
3504;DHT22;1766;53.490;10.174;2023-04-15T09:23:13;18.00;50.70
3504;DHT22;1766;53.490;10.174;2023-04-15T09:25:31;18.10;51.40
3504;DHT22;1766;53.490;10.174;2023-04-15T09:27:35;18.10;50.90
3504;DHT22;1766;53.490;10.174;2023-04-15T09:29:38;18.20;50.80
3504;DHT22;1766;53.490;10.174;2023-04-15T09:31:41;18.40;51.00
3504;DHT22;1766;53.490;10.174;2023-04-15T09:33:54;18.40;50.80
3504;DHT22;1766;53.490;10.174;2023-04-15T09:35:59;18.60;51.00
3504;DHT22;1766;53.490;10.174;2023-04-15T09:38:04;18.70;50.90
3504;DHT22;1766;53.490;10.174;2023-04-15T09:40:08;18.90;51.70
3504;DHT22;1766;53.490;10.174;2023-04-15T09:42:11;19.20;51.00
3504;DHT22;1766;53.490;10.174;2023-04-15T09:44:21;19.40;50.60
3504;DHT22;1766;53.490;10.174;2023-04-15T09:46:39;19.50;50.40
3504;DHT22;1766;53.490;10.174;2023-04-15T09:48:42;19.50;50.20
3504;DHT22;1766;53.490;10.174;2023-04-15T09:50:44;19.70;49.80
3504;DHT22;1766;53.490;10.174;2023-04-15T09:52:46;19.70;49.40
3504;DHT22;1766;53.490;10.174;2023-04-15T09:54:52;19.70;49.30
3504;DHT22;1766;53.490;10.174;2023-04-15T09:56:54;19.70;49.40
3504;DHT22;1766;53.490;10.174;2023-04-15T09:58:56;19.80;49.20
3504;DHT22;1766;53.490;10.174;2023-04-15T10:00:59;19.70;48.60
3504;DHT22;1766;53.490;10.174;2023-04-15T10:03:04;19.70;49.20
3504;DHT22;1766;53.490;10.174;2023-04-15T10:05:08;19.70;48.50
3504;DHT22;1766;53.490;10.174;2023-04-15T10:07:12;19.80;48.40
3504;DHT22;1766;53.490;10.174;2023-04-15T10:09:17;19.80;48.20
3504;DHT22;1766;53.490;10.174;2023-04-15T10:11:21;19.90;48.40
3504;DHT22;1766;53.490;10.174;2023-04-15T10:13:25;20.00;47.90
3504;DHT22;1766;53.490;10.174;2023-04-15T10:15:28;20.10;47.90
3504;DHT22;1766;53.490;10.174;2023-04-15T10:17:32;20.30;47.90
3504;DHT22;1766;53.490;10.174;2023-04-15T10:19:36;20.50;47.90
3504;DHT22;1766;53.490;10.174;2023-04-15T10:21:38;20.60;47.00
3504;DHT22;1766;53.490;10.174;2023-04-15T10:23:40;20.70;47.00
3504;DHT22;1766;53.490;10.174;2023-04-15T10:25:43;20.90;46.80
3504;DHT22;1766;53.490;10.174;2023-04-15T10:27:48;21.00;46.50
3504;DHT22;1766;53.490;10.174;2023-04-15T10:29:52;21.10;46.20
3504;DHT22;1766;53.490;10.174;2023-04-15T10:31:55;21.10;46.10
3504;DHT22;1766;53.490;10.174;2023-04-15T10:33:57;21.20;46.50
3504;DHT22;1766;53.490;10.174;2023-04-15T10:36:03;21.30;45.90
3504;DHT22;1766;53.490;10.174;2023-04-15T10:38:30;21.50;45.60
3504;DHT22;1766;53.490;10.174;2023-04-15T10:40:32;21.40;45.40
3504;DHT22;1766;53.490;10.174;2023-04-15T10:42:34;21.50;44.90
3504;DHT22;1766;53.490;10.174;2023-04-15T10:44:40;21.50;44.80
3504;DHT22;1766;53.490;10.174;2023-04-15T10:46:44;21.50;44.70
3504;DHT22;1766;53.490;10.174;2023-04-15T10:48:48;21.50;43.90
3504;DHT22;1766;53.490;10.174;2023-04-15T10:50:55;21.40;43.70
3504;DHT22;1766;53.490;10.174;2023-04-15T10:52:58;21.20;43.70
3504;DHT22;1766;53.490;10.174;2023-04-15T10:55:02;21.30;43.90
3504;DHT22;1766;53.490;10.174;2023-04-15T10:57:12;21.20;43.60
3504;DHT22;1766;53.490;10.174;2023-04-15T10:59:16;21.10;43.60
3504;DHT22;1766;53.490;10.174;2023-04-15T11:01:21;21.20;43.40
3504;DHT22;1766;53.490;10.174;2023-04-15T11:03:36;21.20;43.40
3504;DHT22;1766;53.490;10.174;2023-04-15T11:05:54;21.10;43.20
3504;DHT22;1766;53.490;10.174;2023-04-15T11:07:56;21.10;42.90
3504;DHT22;1766;53.490;10.174;2023-04-15T11:09:58;21.10;42.80
3504;DHT22;1766;53.490;10.174;2023-04-15T11:12:05;21.00;42.80
3504;DHT22;1766;53.490;10.174;2023-04-15T11:14:14;20.90;42.70
3504;DHT22;1766;53.490;10.174;2023-04-15T11:16:16;20.80;42.60
3504;DHT22;1766;53.490;10.174;2023-04-15T11:18:20;20.80;42.60
3504;DHT22;1766;53.490;10.174;2023-04-15T11:20:22;20.80;42.70
3504;DHT22;1766;53.490;10.174;2023-04-15T11:22:24;20.90;43.40
3504;DHT22;1766;53.490;10.174;2023-04-15T11:24:26;21.10;42.80
3504;DHT22;1766;53.490;10.174;2023-04-15T11:26:28;21.30;42.70
3504;DHT22;1766;53.490;10.174;2023-04-15T11:28:31;21.50;42.70
3504;DHT22;1766;53.490;10.174;2023-04-15T11:30:37;21.70;42.40
3504;DHT22;1766;53.490;10.174;2023-04-15T11:32:41;21.80;41.50
3504;DHT22;1766;53.490;10.174;2023-04-15T11:34:46;21.90;41.80
3504;DHT22;1766;53.490;10.174;2023-04-15T11:36:48;22.10;41.90
3504;DHT22;1766;53.490;10.174;2023-04-15T11:38:51;22.50;41.10
3504;DHT22;1766;53.490;10.174;2023-04-15T11:40:53;22.60;40.70
3504;DHT22;1766;53.490;10.174;2023-04-15T11:43:10;22.80;40.50
3504;DHT22;1766;53.490;10.174;2023-04-15T11:45:16;22.70;39.70
3504;DHT22;1766;53.490;10.174;2023-04-15T11:47:30;22.70;39.20
3504;DHT22;1766;53.490;10.174;2023-04-15T11:49:32;22.60;39.40
3504;DHT22;1766;53.490;10.174;2023-04-15T11:51:39;22.50;39.60
3504;DHT22;1766;53.490;10.174;2023-04-15T11:53:42;22.60;39.70
3504;DHT22;1766;53.490;10.174;2023-04-15T11:55:48;22.60;39.70
3504;DHT22;1766;53.490;10.174;2023-04-15T11:58:06;22.60;39.60
3504;DHT22;1766;53.490;10.174;2023-04-15T12:00:12;22.60;39.60
3504;DHT22;1766;53.490;10.174;2023-04-15T12:02:16;22.70;40.10
3504;DHT22;1766;53.490;10.174;2023-04-15T12:04:18;22.60;39.30
3504;DHT22;1766;53.490;10.174;2023-04-15T12:06:24;22.60;39.10
3504;DHT22;1766;53.490;10.174;2023-04-15T12:08:57;22.50;39.00
3504;DHT22;1766;53.490;10.174;2023-04-15T12:11:00;22.40;39.20
3504;DHT22;1766;53.490;10.174;2023-04-15T12:13:05;22.50;39.30
3504;DHT22;1766;53.490;10.174;2023-04-15T12:15:08;22.50;39.20
3504;DHT22;1766;53.490;10.174;2023-04-15T12:17:12;22.50;39.20
3504;DHT22;1766;53.490;10.174;2023-04-15T12:19:17;22.50;39.10
3504;DHT22;1766;53.490;10.174;2023-04-15T12:21:22;22.60;39.20
3504;DHT22;1766;53.490;10.174;2023-04-15T12:23:24;22.60;38.90
3504;DHT22;1766;53.490;10.174;2023-04-15T12:25:34;22.60;38.70
3504;DHT22;1766;53.490;10.174;2023-04-15T12:27:52;22.40;38.60
3504;DHT22;1766;53.490;10.174;2023-04-15T12:30:03;22.30;38.40
3504;DHT22;1766;53.490;10.174;2023-04-15T12:32:07;22.20;38.50
3504;DHT22;1766;53.490;10.174;2023-04-15T12:34:13;22.20;38.70
3504;DHT22;1766;53.490;10.174;2023-04-15T12:36:16;22.10;38.70
3504;DHT22;1766;53.490;10.174;2023-04-15T12:38:18;22.00;38.50
3504;DHT22;1766;53.490;10.174;2023-04-15T12:40:20;21.90;38.60
3504;DHT22;1766;53.490;10.174;2023-04-15T12:42:23;21.80;38.60
3504;DHT22;1766;53.490;10.174;2023-04-15T12:44:25;21.70;38.80
3504;DHT22;1766;53.490;10.174;2023-04-15T12:46:27;21.60;38.90
3504;DHT22;1766;53.490;10.174;2023-04-15T12:48:29;21.60;38.90
3504;DHT22;1766;53.490;10.174;2023-04-15T12:50:30;21.60;39.00
3504;DHT22;1766;53.490;10.174;2023-04-15T12:52:32;21.60;39.10
3504;DHT22;1766;53.490;10.174;2023-04-15T12:54:37;21.70;39.00
3504;DHT22;1766;53.490;10.174;2023-04-15T12:56:39;21.70;38.80
3504;DHT22;1766;53.490;10.174;2023-04-15T12:58:43;21.70;38.60
3504;DHT22;1766;53.490;10.174;2023-04-15T13:00:44;21.70;38.60
3504;DHT22;1766;53.490;10.174;2023-04-15T13:02:46;21.80;38.60
3504;DHT22;1766;53.490;10.174;2023-04-15T13:04:48;21.80;38.50
3504;DHT22;1766;53.490;10.174;2023-04-15T13:06:50;21.80;38.40
3504;DHT22;1766;53.490;10.174;2023-04-15T13:08:52;21.90;38.20
3504;DHT22;1766;53.490;10.174;2023-04-15T13:10:54;21.90;38.10
3504;DHT22;1766;53.490;10.174;2023-04-15T13:12:56;21.80;38.00